»·PEaware :: N4657 KRNO-KSAC

N4657 :: KRNO-KSAC

FLIGHT INFORMATION

Flight Status: Arrived
Operator: Privately registered:
United States
More flights under this callsign
Pilot: Gavin F. (2831)
Aircraft: PILATUS PC-12 EAGLE
(PC12)
More flights by this aircraft type
Origin: KRNO Reno/Tahoe Intl
United States
Destination: KSAC Sacramento Executive
United States
More flights between these airports :: More routes between these airports
Route: FMG J32 SAC
File this flight plan on PilotEdge
Remarks:
Altitude:
(Current/Filed)
18,000ft
Speed:
(Current/Filed)
200kts
Departed: 18-Jun-18 12:52 PM
Arrived: 18-Jun-18 02:00 PM
Distance/Time
Traveled:
100nm/1:08
Distance/Time
To Go:
Arrived

Flight Plot

Page will automatically refresh every two minutes.

Flight plan parsing failed; only flown route is shown


Map Options




Map Legend


Flown Route
Filed Route
Departure Airport
Arrival Airport
Navaid (VOR, NDB)
Fix

Horizontal Profiles

Position Reports

Time Latitude Longitude Heading Altitude Ground
Speed
18-Jun-18 12:04 39.498610 -119.764249 179 4419ft 0kts
18-Jun-18 12:05 39.498610 -119.764249 179 4419ft 0kts
18-Jun-18 12:06 39.498610 -119.764249 179 4419ft 0kts
18-Jun-18 12:07 39.498610 -119.764249 179 4419ft 0kts
18-Jun-18 12:08 39.498610 -119.764249 179 4419ft 0kts
18-Jun-18 12:09 39.498610 -119.764249 179 4419ft 0kts
18-Jun-18 12:10 39.498610 -119.764249 179 4419ft 0kts
18-Jun-18 12:11 39.498610 -119.764249 179 4419ft 0kts
18-Jun-18 12:12 39.498610 -119.764249 179 4419ft 0kts
18-Jun-18 12:13 39.498610 -119.764249 179 4419ft 0kts
18-Jun-18 12:14 39.498610 -119.764249 179 4419ft 0kts
18-Jun-18 12:15 39.498610 -119.764249 179 4419ft 0kts
18-Jun-18 12:16 39.498610 -119.764249 179 4419ft 0kts
18-Jun-18 12:17 39.498610 -119.764249 179 4419ft 0kts
18-Jun-18 12:18 39.498610 -119.764249 179 4419ft 0kts
18-Jun-18 12:19 39.498610 -119.764249 179 4419ft 0kts
18-Jun-18 12:20 39.498610 -119.764249 179 4419ft 0kts
18-Jun-18 12:21 39.498610 -119.764249 179 4419ft 0kts
18-Jun-18 12:22 39.498610 -119.764249 179 4419ft 0kts
18-Jun-18 12:23 39.498610 -119.764249 179 4419ft 0kts
18-Jun-18 12:24 39.498610 -119.764249 179 4419ft 0kts
18-Jun-18 12:25 39.498610 -119.764249 179 4419ft 0kts
18-Jun-18 12:26 39.498610 -119.764249 179 4419ft 0kts
18-Jun-18 12:27 39.498610 -119.764249 179 4419ft 0kts
18-Jun-18 12:28 39.498610 -119.764249 179 4419ft 0kts
18-Jun-18 12:29 39.498610 -119.764249 179 4419ft 0kts
18-Jun-18 12:30 39.498610 -119.764249 180 4419ft 0kts
18-Jun-18 12:31 39.498610 -119.764249 179 4419ft 0kts
18-Jun-18 12:32 39.498610 -119.764249 180 4419ft 0kts
18-Jun-18 12:33 39.498610 -119.764249 180 4419ft 0kts
18-Jun-18 12:34 39.498610 -119.764249 179 4419ft 0kts
18-Jun-18 12:35 39.498610 -119.764249 179 4419ft 0kts
18-Jun-18 12:36 39.498610 -119.764249 179 4419ft 0kts
18-Jun-18 12:37 39.498610 -119.764249 179 4419ft 0kts
18-Jun-18 12:38 39.498610 -119.764249 180 4419ft 0kts
18-Jun-18 12:39 39.498610 -119.764249 179 4419ft 0kts
18-Jun-18 12:40 39.498610 -119.764249 179 4419ft 0kts
18-Jun-18 12:41 39.498610 -119.764249 179 4419ft 0kts
18-Jun-18 12:42 39.498610 -119.764249 179 4419ft 0kts
18-Jun-18 12:43 39.498610 -119.764249 179 4419ft 0kts
18-Jun-18 12:44 39.498610 -119.764249 179 4419ft 0kts
18-Jun-18 12:45 39.498610 -119.764249 179 4419ft 0kts
18-Jun-18 12:46 39.497655 -119.765201 175 4419ft 8kts
18-Jun-18 12:47 39.493721 -119.765164 177 4419ft 19kts
18-Jun-18 12:48 39.489449 -119.765325 193 4419ft 7kts
18-Jun-18 12:49 39.489237 -119.765631 273 4419ft 0kts
18-Jun-18 12:50 39.489237 -119.765795 267 4419ft 6kts
18-Jun-18 12:51 39.489723 -119.766801 39 4419ft 0kts
18-Jun-18 12:52 39.516179 -119.768649 357 5244ft 140kts
18-Jun-18 12:53 39.552622 -119.771410 14 7554ft 129kts
18-Jun-18 12:54 39.550106 -119.740580 109 9415ft 126kts
18-Jun-18 12:55 39.541306 -119.694692 107 11258ft 133kts
18-Jun-18 12:56 39.524395 -119.651920 146 12955ft 150kts
18-Jun-18 12:57 39.498232 -119.687268 256 14666ft 173kts
18-Jun-18 12:58 39.481613 -119.740800 255 16613ft 157kts
18-Jun-18 12:59 39.457954 -119.789615 232 18018ft 180kts
18-Jun-18 13:00 39.420568 -119.844360 233 18210ft 218kts
18-Jun-18 13:01 39.385251 -119.908120 240 18164ft 219kts
18-Jun-18 13:02 39.354328 -119.975102 243 18137ft 217kts
18-Jun-18 13:03 39.321361 -120.040117 241 18231ft 216kts
18-Jun-18 13:04 39.287142 -120.103976 240 18228ft 218kts
18-Jun-18 13:05 39.252129 -120.168203 240 18229ft 220kts
18-Jun-18 13:06 39.216755 -120.232732 240 18228ft 221kts
18-Jun-18 13:07 39.181197 -120.297413 240 18226ft 222kts
18-Jun-18 13:08 39.145451 -120.362285 239 18229ft 222kts
18-Jun-18 13:09 39.109915 -120.426615 240 18225ft 221kts
18-Jun-18 13:10 39.074239 -120.491048 240 18228ft 220kts
18-Jun-18 13:11 39.038815 -120.554973 240 18229ft 220kts
18-Jun-18 13:12 39.003106 -120.619260 240 18227ft 220kts
18-Jun-18 13:13 38.968521 -120.681109 239 18231ft 221kts
18-Jun-18 13:14 38.932626 -120.745266 239 18231ft 222kts
18-Jun-18 13:15 38.895406 -120.805517 225 18228ft 228kts
18-Jun-18 13:16 38.849954 -120.861785 234 18091ft 226kts
18-Jun-18 13:17 38.808981 -120.927531 237 16939ft 252kts
18-Jun-18 13:18 38.766196 -121.000324 237 15348ft 259kts
18-Jun-18 13:19 38.723566 -121.073549 237 13745ft 257kts
18-Jun-18 13:20 38.680946 -121.146983 236 12135ft 258kts
18-Jun-18 13:21 38.638641 -121.219442 235 10548ft 256kts
18-Jun-18 13:22 38.596205 -121.292075 235 8954ft 256kts
18-Jun-18 13:23 38.554562 -121.363064 236 7367ft 242kts
18-Jun-18 13:24 38.519688 -121.422673 233 6137ft 191kts
18-Jun-18 13:25 38.489590 -121.473585 233 5809ft 178kts
18-Jun-18 13:26 38.460535 -121.522944 233 5802ft 168kts
18-Jun-18 13:27 38.429333 -121.567844 209 5013ft 168kts
18-Jun-18 13:28 38.389895 -121.594188 214 4007ft 158kts
18-Jun-18 13:29 38.362899 -121.579340 67 3043ft 150kts
18-Jun-18 13:30 38.399820 -121.574730 341 2067ft 148kts
18-Jun-18 13:31 38.436107 -121.559001 32 1318ft 151kts
18-Jun-18 13:32 38.471726 -121.528526 34 824ft 132kts
18-Jun-18 13:33 38.501908 -121.503422 32 147ft 116kts
18-Jun-18 13:34 38.525662 -121.483829 20 492ft 129kts
18-Jun-18 13:35 38.534781 -121.524672 227 1513ft 186kts
18-Jun-18 13:36 38.479631 -121.547849 186 1333ft 212kts
18-Jun-18 13:37 38.431144 -121.556498 211 1453ft 159kts
18-Jun-18 13:38 38.393565 -121.590677 225 1325ft 170kts
18-Jun-18 13:39 38.365065 -121.578262 66 1301ft 158kts
18-Jun-18 13:40 38.403016 -121.577024 336 1359ft 154kts
18-Jun-18 13:41 38.439859 -121.559164 23 1256ft 171kts
18-Jun-18 13:42 38.470305 -121.531894 34 472ft 119kts
18-Jun-18 13:43 38.497091 -121.508364 35 345ft 122kts
18-Jun-18 13:44 38.520948 -121.487548 34 246ft 106kts
18-Jun-18 13:45 38.547338 -121.498171 274 1436ft 163kts
18-Jun-18 13:46 38.512593 -121.526517 180 1277ft 177kts
18-Jun-18 13:47 38.466713 -121.538521 190 2639ft 158kts
18-Jun-18 13:48 38.426610 -121.526926 154 3814ft 170kts
18-Jun-18 13:49 38.382567 -121.499377 153 3811ft 181kts
18-Jun-18 13:50 38.335992 -121.486205 210 3815ft 183kts
18-Jun-18 13:51 38.293590 -121.521858 214 3809ft 179kts
18-Jun-18 13:52 38.253854 -121.558307 241 3809ft 175kts
18-Jun-18 13:53 38.267268 -121.614795 319 3808ft 173kts
18-Jun-18 13:54 38.313973 -121.618650 2 3162ft 171kts
18-Jun-18 13:55 38.361174 -121.614777 12 2327ft 170kts
18-Jun-18 13:56 38.401870 -121.586344 32 1513ft 167kts
18-Jun-18 13:57 38.440235 -121.554599 33 1310ft 159kts
18-Jun-18 13:58 38.468907 -121.530724 33 913ft 116kts
18-Jun-18 13:59 38.495820 -121.508555 33 303ft 109kts
18-Jun-18 14:00 38.513013 -121.494274 18 27ft 6kts
18-Jun-18 14:01 38.513354 -121.495558 269 27ft 0kts
18-Jun-18 14:02 38.513409 -121.497417 29 27ft 0kts
18-Jun-18 14:03 38.513413 -121.497414 28 27ft 0kts
18-Jun-18 14:04 38.513413 -121.497414 28 27ft 0kts
18-Jun-18 14:05 38.513413 -121.497414 28 27ft 0kts
18-Jun-18 14:06 38.513413 -121.497414 28 27ft 0kts
18-Jun-18 14:07 38.513413 -121.497414 28 27ft 0kts
18-Jun-18 14:08 38.513413 -121.497414 28 27ft 0kts
18-Jun-18 14:09 38.513413 -121.497414 28 27ft 0kts
18-Jun-18 14:10 38.513413 -121.497414 28 27ft 0kts
18-Jun-18 14:11 38.513413 -121.497414 28 27ft 0kts
18-Jun-18 14:12 38.513413 -121.497414 28 27ft 0kts
18-Jun-18 14:13 38.513413 -121.497414 28 27ft 0kts
18-Jun-18 14:14 38.513413 -121.497414 28 27ft 0kts

Navigation Log

Ident Type
Flight plan parsing failed, navigation log unavailable